Time;durP1;ratioP1;P1;durP2;ratioP2;P2;SDS_P1;SDS_P2;PMS_P1;PMS_P2;Temp;Humidity;BMP_temperature;BMP_pressure;BME280_temperature;BME280_humidity;BME280_pressure;Samples;Min_cycle;Max_cycle;Signal;HPM_P1;HPM_P2
2023/03/25 00:01:12;;;;;;;17.42;2.35;;;;;;;9.06;85.78;100103.72;5058208;28;20095;-71
2023/03/25 00:03:42;;;;;;;16.05;2.38;;;;;;;9.05;86.16;100102.03;5056219;28;20041;-71
2023/03/25 00:06:09;;;;;;;16.13;2.38;;;;;;;9.04;85.89;100116.03;5056425;28;20037;-71
2023/03/25 00:08:35;;;;;;;10.68;1.90;;;;;;;9.05;86.50;100109.88;5058052;28;20316;-71
2023/03/25 00:11:05;;;;;;;17.83;2.65;;;;;;;9.03;86.01;100104.69;5058015;28;20411;-71
2023/03/25 00:13:31;;;;;;;10.10;2.42;;;;;;;9.05;86.01;100106.41;5055335;28;20033;-72
2023/03/25 00:15:57;;;;;;;16.58;2.28;;;;;;;9.04;86.37;100095.13;5055410;28;20311;-71
2023/03/25 00:18:25;;;;;;;13.85;2.40;;;;;;;9.02;86.36;100092.56;5058300;28;20051;-71
2023/03/25 00:20:52;;;;;;;16.33;1.92;;;;;;;9.03;86.48;100096.88;5057224;28;20400;-71
2023/03/25 00:23:21;;;;;;;14.98;2.40;;;;;;;9.01;85.35;100095.25;5059401;28;20143;-71
2023/03/25 00:25:48;;;;;;;15.48;2.20;;;;;;;9.01;85.53;100103.94;5058408;28;20051;-71
2023/03/25 00:28:15;;;;;;;12.73;2.17;;;;;;;9.00;86.35;100089.19;5059142;28;20062;-71
2023/03/25 00:30:42;;;;;;;12.27;2.08;;;;;;;9.01;86.08;100103.09;5058871;28;20045;-71
2023/03/25 00:33:12;;;;;;;7.97;1.95;;;;;;;9.01;86.31;100087.41;5059314;28;20045;-71
2023/03/25 00:35:43;;;;;;;11.55;1.60;;;;;;;9.02;86.31;100081.25;5059274;28;20093;-71
2023/03/25 00:38:10;;;;;;;13.15;2.33;;;;;;;9.03;86.75;100099.47;5059282;28;20052;-71
2023/03/25 00:40:36;;;;;;;10.68;2.10;;;;;;;9.01;86.03;100090.88;5058875;28;20082;-71
2023/03/25 00:43:03;;;;;;;20.15;3.28;;;;;;;9.00;86.59;100091.81;5059232;28;20045;-71
2023/03/25 00:45:29;;;;;;;14.77;2.50;;;;;;;8.97;86.54;100085.88;5059156;28;20045;-71
2023/03/25 00:47:55;;;;;;;16.35;2.50;;;;;;;8.96;86.74;100081.56;5058477;28;20037;-71
2023/03/25 00:50:20;;;;;;;14.93;3.38;;;;;;;8.97;86.84;100085.88;5058933;28;20037;-71
2023/03/25 00:52:47;;;;;;;12.75;2.40;;;;;;;8.97;87.12;100096.31;5058646;28;20033;-71
2023/03/25 00:55:12;;;;;;;14.48;2.97;;;;;;;8.96;86.69;100092.84;5059041;28;20110;-71
2023/03/25 00:57:38;;;;;;;9.60;1.75;;;;;;;8.96;87.18;100076.34;5058090;28;20340;-71
2023/03/25 01:00:06;;;;;;;17.00;2.78;;;;;;;8.97;87.28;100089.31;5058640;28;20029;-71
2023/03/25 01:02:32;;;;;;;15.10;2.47;;;;;;;8.97;87.73;100094.56;5058715;28;20234;-71
2023/03/25 01:04:59;;;;;;;19.13;3.72;;;;;;;8.97;87.58;100084.09;5058778;28;20060;-71
2023/03/25 01:07:24;;;;;;;14.82;1.90;;;;;;;8.94;87.54;100086.84;5058046;28;20044;-71
2023/03/25 01:09:50;;;;;;;17.42;2.78;;;;;;;8.92;87.74;100080.00;5058168;28;20245;-71
2023/03/25 01:12:17;;;;;;;14.93;2.47;;;;;;;8.92;88.08;100088.69;5058165;28;20112;-71
2023/03/25 01:14:43;;;;;;;8.18;1.85;;;;;;;8.92;88.40;100082.63;5058012;28;20150;-71
2023/03/25 01:17:09;;;;;;;10.98;2.20;;;;;;;8.88;88.21;100092.38;5057963;28;20100;-71
2023/03/25 01:19:34;;;;;;;14.88;2.17;;;;;;;8.87;88.70;100087.22;5057528;28;20064;-71
2023/03/25 01:22:00;;;;;;;14.38;2.72;;;;;;;8.86;88.92;100080.28;5058174;28;20033;-71
2023/03/25 01:24:25;;;;;;;14.65;2.17;;;;;;;8.86;89.08;100078.53;5040297;28;20044;-71
2023/03/25 01:26:51;;;;;;;12.10;2.53;;;;;;;8.87;89.13;100085.44;5058046;28;20220;-71
2023/03/25 01:29:19;;;;;;;9.98;2.15;;;;;;;8.87;89.57;100092.44;5058034;28;20052;-71
2023/03/25 01:31:44;;;;;;;15.00;3.30;;;;;;;8.86;89.70;100072.44;5058190;28;20270;-71
2023/03/25 01:34:10;;;;;;;12.95;2.22;;;;;;;8.82;90.75;100080.44;5058282;28;20040;-71
2023/03/25 01:36:38;;;;;;;14.75;2.65;;;;;;;8.80;90.46;100084.88;5057478;28;20086;-71
2023/03/25 01:39:04;;;;;;;17.48;3.03;;;;;;;8.81;91.11;100085.72;5057821;28;20041;-71
2023/03/25 01:41:31;;;;;;;16.92;2.92;;;;;;;8.78;91.23;100078.84;5057876;28;20096;-71
2023/03/25 01:44:08;;;;;;;14.48;2.70;;;;;;;8.80;91.33;100071.81;5057355;28;20128;-71
2023/03/25 01:46:38;;;;;;;15.25;2.58;;;;;;;8.81;91.14;100068.28;5057590;28;20371;-71
2023/03/25 01:49:07;;;;;;;18.83;3.03;;;;;;;8.81;91.28;100072.66;5057538;28;20437;-71
2023/03/25 01:51:39;;;;;;;21.58;2.80;;;;;;;8.79;91.52;100075.34;5057463;28;20052;-71
2023/03/25 01:54:05;;;;;;;10.77;2.30;;;;;;;8.78;91.33;100070.19;5057378;28;20343;-71
2023/03/25 01:56:36;;;;;;;8.80;1.85;;;;;;;8.78;91.42;100068.41;5057677;28;20356;-71
2023/03/25 01:59:05;;;;;;;18.27;3.13;;;;;;;8.80;91.49;100061.38;5057890;28;20047;-71
2023/03/25 02:01:30;;;;;;;;;;;;;;;8.78;91.29;100068.41;5058007;28;20040;-71
2023/03/25 02:04:01;;;;;;;11.63;2.20;;;;;;;8.77;91.27;100065.91;5056934;28;20305;-71
2023/03/25 02:06:40;;;;;;;19.42;2.72;;;;;;;8.77;91.46;100068.50;5057447;28;20228;-71
2023/03/25 02:09:07;;;;;;;11.65;1.98;;;;;;;8.76;91.86;100053.75;5057607;28;20036;-71
2023/03/25 02:11:34;;;;;;;23.98;3.03;;;;;;;8.76;91.63;100056.34;5056942;28;20037;-71
2023/03/25 02:14:03;;;;;;;12.73;2.58;;;;;;;8.75;91.70;100062.47;5056715;28;20433;-71
2023/03/25 02:16:34;;;;;;;19.92;3.25;;;;;;;8.74;92.14;100059.03;5057304;28;20041;-71
2023/03/25 02:19:46;;;;;;;18.58;3.08;;;;;;;8.73;92.40;100069.53;5056989;28;20045;-71
2023/03/25 02:22:40;;;;;;;16.52;2.63;;;;;;;8.75;92.09;100070.31;5037378;28;20033;-71
2023/03/25 02:25:34;;;;;;;20.25;3.15;;;;;;;8.74;92.34;100051.19;5050476;28;20039;-71
2023/03/25 02:28:09;;;;;;;12.13;2.80;;;;;;;8.75;92.57;100055.53;5057599;28;20340;-71
2023/03/25 02:30:51;;;;;;;12.52;2.42;;;;;;;8.76;92.51;100045.91;5060176;28;20124;-71
2023/03/25 02:33:36;;;;;;;15.27;2.80;;;;;;;8.75;92.35;100045.09;5061381;28;20072;-71
2023/03/25 02:36:14;;;;;;;16.52;3.22;;;;;;;8.75;92.68;100037.25;5061523;28;20058;-71
2023/03/25 02:38:46;;;;;;;18.27;3.45;;;;;;;8.76;92.58;100048.53;5061212;28;20360;-71
2023/03/25 02:41:31;;;;;;;21.63;3.17;;;;;;;8.77;92.58;100045.84;5060777;28;20051;-71
2023/03/25 02:44:23;;;;;;;19.23;3.20;;;;;;;8.77;92.91;100032.81;5061011;28;20040;-71
2023/03/25 02:46:55;;;;;;;19.33;2.95;;;;;;;8.77;92.79;100039.78;5060962;28;20048;-71
2023/03/25 02:49:26;;;;;;;19.42;3.15;;;;;;;8.78;93.04;100044.91;5061048;28;20280;-71
2023/03/25 02:52:13;;;;;;;23.10;3.60;;;;;;;8.78;92.59;100039.69;5060857;28;20586;-71
2023/03/25 02:54:40;;;;;;;20.25;2.85;;;;;;;8.79;92.52;100035.34;5060960;28;20048;-71
2023/03/25 02:57:08;;;;;;;20.83;3.13;;;;;;;8.79;92.77;100038.78;5061533;28;20398;-71
2023/03/25 02:59:37;;;;;;;21.17;2.92;;;;;;;8.80;92.57;100037.00;5060086;28;20382;-71
2023/03/25 03:02:06;;;;;;;;;;;;;;;8.79;92.79;100023.13;5061305;28;20052;-71
2023/03/25 03:04:31;;;;;;;21.23;2.92;;;;;;;8.80;92.71;100026.56;5060558;28;19954;-71
2023/03/25 03:06:57;;;;;;;15.60;2.65;;;;;;;8.78;92.76;100016.19;5053827;28;20041;-71
2023/03/25 03:09:39;;;;;;;19.05;2.60;;;;;;;8.80;93.22;100018.75;5043899;28;20021;-71
2023/03/25 03:12:07;;;;;;;16.75;2.92;;;;;;;8.78;93.75;99997.09;5060986;28;20463;-71
2023/03/25 03:14:55;;;;;;;21.23;2.83;;;;;;;8.76;94.01;100023.25;5060176;28;20040;-71
2023/03/25 03:17:48;;;;;;;20.50;3.40;;;;;;;8.73;94.24;100020.81;5050906;28;20044;-71
2023/03/25 03:20:31;;;;;;;14.77;3.15;;;;;;;8.73;95.27;99999.06;5060464;28;20056;-71
2023/03/25 03:23:12;;;;;;;23.05;3.47;;;;;;;8.69;96.01;99998.34;5060590;28;20041;-71
2023/03/25 03:26:13;;;;;;;18.20;3.33;;;;;;;8.68;96.55;100003.63;5059991;28;20033;-71
2023/03/25 03:29:18;;;;;;;19.08;2.65;;;;;;;8.65;96.95;100018.53;5060041;28;20037;-71
2023/03/25 03:32:21;;;;;;;22.33;3.50;;;;;;;8.67;97.03;100023.69;5009668;28;20045;-71
2023/03/25 03:34:56;;;;;;;17.80;3.22;;;;;;;8.67;97.20;100022.84;5043268;28;20037;-71
2023/03/25 03:37:40;;;;;;;17.05;2.78;;;;;;;8.62;97.62;100021.31;5040062;28;20038;-71
2023/03/25 03:40:12;;;;;;;20.42;3.33;;;;;;;8.61;98.39;100032.66;5053291;28;20040;-71
2023/03/25 03:42:47;;;;;;;22.60;4.00;;;;;;;8.53;99.48;100042.59;5042005;28;20037;-71
2023/03/25 03:45:18;;;;;;;27.58;3.92;;;;;;;8.44;99.62;100027.31;5059901;28;20368;-71
2023/03/25 03:47:49;;;;;;;29.52;4.25;;;;;;;8.43;99.93;100036.09;5059739;28;20060;-71
2023/03/25 03:50:20;;;;;;;26.83;4.07;;;;;;;8.37;99.18;100042.41;5060034;28;20366;-71
2023/03/25 03:53:02;;;;;;;27.55;3.65;;;;;;;8.33;98.82;100033.03;5059755;28;20056;-73
2023/03/25 03:55:36;;;;;;;22.30;3.13;;;;;;;8.36;98.76;100034.63;5060005;28;20276;-71
2023/03/25 03:58:14;;;;;;;25.27;4.05;;;;;;;8.38;99.18;100032.78;5060520;28;20041;-70
2023/03/25 04:00:49;;;;;;;20.40;3.10;;;;;;;8.39;99.20;100032.72;5059547;28;20033;-70
2023/03/25 04:03:24;;;;;;;24.85;3.42;;;;;;;8.39;98.36;100040.56;5059845;28;20064;-70
2023/03/25 04:06:00;;;;;;;20.70;3.75;;;;;;;8.39;97.61;100032.72;5058506;28;20041;-70
2023/03/25 04:08:35;;;;;;;31.92;4.00;;;;;;;8.41;97.86;100030.91;5059502;28;20041;-70
2023/03/25 04:11:07;;;;;;;26.42;3.33;;;;;;;8.42;97.85;100018.72;5059613;28;20033;-70
2023/03/25 04:13:37;;;;;;;24.70;3.97;;;;;;;8.45;97.42;100044.69;5059249;28;20040;-70
2023/03/25 04:16:02;;;;;;;28.55;4.10;;;;;;;8.47;97.20;100031.56;5060037;28;20355;-70
2023/03/25 04:18:28;;;;;;;21.38;3.08;;;;;;;8.48;97.39;100021.06;5059212;28;20456;-70
2023/03/25 04:20:54;;;;;;;21.58;3.17;;;;;;;8.43;96.33;100051.75;5058921;28;20079;-70
2023/03/25 04:23:21;;;;;;;33.70;3.85;;;;;;;8.39;96.41;100039.72;5059042;28;20041;-70
2023/03/25 04:25:48;;;;;;;28.67;3.75;;;;;;;8.41;96.65;100037.88;5058934;28;20055;-70
2023/03/25 04:28:16;;;;;;;34.22;4.55;;;;;;;8.38;96.67;100043.22;5059277;28;20040;-70
2023/03/25 04:30:44;;;;;;;20.93;3.80;;;;;;;8.38;97.31;100045.84;5041747;28;20325;-70
2023/03/25 04:33:10;;;;;;;42.33;4.63;;;;;;;8.36;97.39;100043.28;5059350;28;20064;-70
2023/03/25 04:35:36;;;;;;;32.65;3.95;;;;;;;8.37;97.39;100038.94;5058728;28;20075;-70
2023/03/25 04:38:01;;;;;;;32.28;4.15;;;;;;;8.35;97.20;100038.13;5058954;28;20299;-70
2023/03/25 04:40:26;;;;;;;28.17;4.95;;;;;;;8.33;96.92;100032.16;5059060;28;20075;-70
2023/03/25 04:42:52;;;;;;;31.50;5.13;;;;;;;8.32;96.50;100038.31;5058729;28;20044;-70
2023/03/25 04:45:18;;;;;;;24.20;4.80;;;;;;;8.35;96.75;100043.34;5040794;28;20344;-70
2023/03/25 04:47:45;;;;;;;31.80;4.75;;;;;;;8.35;96.56;100048.56;5058751;28;20045;-70
2023/03/25 04:50:19;;;;;;;30.40;4.38;;;;;;;8.33;96.48;100053.88;5058903;28;20033;-70
2023/03/25 04:52:45;;;;;;;31.13;5.00;;;;;;;8.32;95.97;100061.78;5057605;28;20259;-70
2023/03/25 04:55:16;;;;;;;30.92;4.43;;;;;;;8.30;95.65;100050.56;5058959;28;20040;-70
2023/03/25 04:57:43;;;;;;;31.70;4.47;;;;;;;8.31;96.06;100047.88;5058663;28;20029;-70
2023/03/25 05:00:10;;;;;;;25.25;4.55;;;;;;;8.30;95.10;100050.56;5058630;28;20548;-70
2023/03/25 05:02:36;;;;;;;38.80;5.13;;;;;;;8.31;95.38;100052.25;5058007;28;20228;-70
2023/03/25 05:05:03;;;;;;;24.02;4.60;;;;;;;8.30;95.40;100047.97;5058687;28;20047;-70
2023/03/25 05:07:29;;;;;;;27.80;4.00;;;;;;;8.31;95.21;100079.16;5058399;28;20349;-70
2023/03/25 05:09:56;;;;;;;27.95;4.13;;;;;;;8.29;95.20;100083.59;5058287;28;20045;-70
2023/03/25 05:12:22;;;;;;;24.13;4.45;;;;;;;8.26;95.04;100075.94;5057962;28;20043;-70
2023/03/25 05:14:47;;;;;;;31.50;4.60;;;;;;;8.21;94.55;100057.88;5058423;28;20056;-70
2023/03/25 05:17:13;;;;;;;25.17;4.22;;;;;;;8.20;94.33;100066.59;5058219;28;20048;-70
2023/03/25 05:19:42;;;;;;;32.33;4.07;;;;;;;8.19;94.42;100056.25;5057641;28;20060;-70
2023/03/25 05:22:08;;;;;;;26.65;4.05;;;;;;;8.16;94.64;100066.81;5057605;28;20360;-70
2023/03/25 05:24:33;;;;;;;32.03;3.70;;;;;;;8.16;94.55;100056.38;5057801;28;20043;-70
2023/03/25 05:27:01;;;;;;;25.08;3.90;;;;;;;8.14;94.44;100061.66;5058029;28;20363;-70
2023/03/25 05:29:27;;;;;;;26.00;4.18;;;;;;;8.13;93.75;100072.13;5058084;28;20037;-70
2023/03/25 05:31:52;;;;;;;19.80;3.80;;;;;;;8.14;94.09;100073.84;5057538;28;20037;-70
2023/03/25 05:34:19;;;;;;;36.60;4.93;;;;;;;8.13;94.40;100059.97;5058116;28;20040;-70
2023/03/25 05:36:44;;;;;;;19.13;3.60;;;;;;;8.13;94.58;100065.19;5057224;28;20351;-70
2023/03/25 05:39:10;;;;;;;24.50;3.17;;;;;;;8.15;94.93;100068.56;5058319;28;20032;-70
2023/03/25 05:41:38;;;;;;;24.48;3.20;;;;;;;8.15;94.73;100076.41;5057402;28;20060;-71
2023/03/25 05:44:06;;;;;;;34.70;4.23;;;;;;;8.18;94.88;100078.84;5058393;28;20344;-70
2023/03/25 05:46:31;;;;;;;29.00;3.72;;;;;;;8.19;94.91;100075.34;5057606;28;20043;-70
2023/03/25 05:48:59;;;;;;;24.17;3.33;;;;;;;8.20;95.00;100082.25;5057642;28;20044;-70
2023/03/25 05:51:26;;;;;;;32.83;4.47;;;;;;;8.20;94.72;100078.78;5057943;28;20052;-70
2023/03/25 05:53:52;;;;;;;21.67;3.80;;;;;;;8.20;94.91;100089.22;5057365;28;20051;-70
2023/03/25 05:56:20;;;;;;;20.75;4.05;;;;;;;8.19;95.20;100084.94;5057425;28;20037;-70
2023/03/25 05:58:46;;;;;;;26.23;3.78;;;;;;;8.20;95.20;100081.41;5057750;28;20363;-70
2023/03/25 06:01:14;;;;;;;19.52;3.63;;;;;;;8.22;95.60;100079.56;5057557;28;20064;-70
2023/03/25 06:03:40;;;;;;;27.38;3.95;;;;;;;8.22;95.59;100083.03;5050985;28;20028;-70
2023/03/25 06:06:12;;;;;;;26.55;4.55;;;;;;;8.22;95.34;100082.19;5057860;28;20039;-70
2023/03/25 06:08:42;;;;;;;17.23;3.20;;;;;;;8.23;95.49;100095.16;5056810;28;20380;-70
2023/03/25 06:11:12;;;;;;;28.13;4.00;;;;;;;8.23;94.78;100086.50;5053273;28;20044;-70
2023/03/25 06:13:38;;;;;;;25.88;4.65;;;;;;;8.23;95.37;100108.19;5054801;28;20037;-70
2023/03/25 06:16:05;;;;;;;38.33;5.30;;;;;;;8.22;94.88;100108.25;5057432;28;20036;-70
2023/03/25 06:18:31;;;;;;;21.77;3.60;;;;;;;8.21;94.75;100099.59;5057782;28;20048;-70
2023/03/25 06:20:58;;;;;;;26.55;3.83;;;;;;;8.23;94.95;100102.16;5057038;28;20076;-70
2023/03/25 06:23:25;;;;;;;32.92;4.30;;;;;;;8.21;94.61;100107.44;5057381;28;20041;-70
2023/03/25 06:25:51;;;;;;;25.45;3.78;;;;;;;8.23;94.63;100109.97;5056945;28;20029;-70
2023/03/25 06:28:17;;;;;;;28.10;4.35;;;;;;;8.22;94.81;100092.63;5057742;28;20380;-70
2023/03/25 06:30:52;;;;;;;25.73;3.28;;;;;;;8.21;93.94;100103.97;5056883;28;20033;-70
2023/03/25 06:33:18;;;;;;;28.50;3.95;;;;;;;8.23;94.36;100097.78;5057239;28;20082;-70
2023/03/25 06:35:48;;;;;;;24.92;4.15;;;;;;;8.23;93.44;100112.59;5039081;28;20029;-70
2023/03/25 06:38:14;;;;;;;29.48;4.18;;;;;;;8.24;93.40;100103.81;5057201;28;20037;-70
2023/03/25 06:40:39;;;;;;;25.13;3.90;;;;;;;8.25;94.03;100110.75;5056992;28;20043;-70
2023/03/25 06:43:05;;;;;;;24.92;3.53;;;;;;;8.24;93.90;100112.53;5057797;28;20347;-70
2023/03/25 06:45:34;;;;;;;36.33;4.07;;;;;;;8.24;93.93;100130.78;5057076;28;20181;-70
2023/03/25 06:47:59;;;;;;;27.30;4.00;;;;;;;8.25;93.66;100108.13;5040117;28;20324;-70
2023/03/25 06:50:25;;;;;;;22.33;3.45;;;;;;;8.27;93.25;100108.91;5052507;28;20045;-70
2023/03/25 06:52:51;;;;;;;32.70;4.53;;;;;;;8.29;93.02;100119.28;5073874;28;20236;-70
2023/03/25 06:55:16;;;;;;;21.75;3.88;;;;;;;8.31;92.56;100112.25;5056537;28;20071;-70
2023/03/25 06:57:42;;;;;;;23.40;3.97;;;;;;;8.32;92.58;100109.56;5056303;28;20267;-70
2023/03/25 07:00:08;;;;;;;32.75;4.78;;;;;;;8.33;92.51;100126.06;5057232;28;20047;-70
2023/03/25 07:02:34;;;;;;;29.08;4.60;;;;;;;8.34;92.03;100123.41;5056252;28;20068;-70
2023/03/25 07:04:59;;;;;;;23.25;3.85;;;;;;;8.35;91.04;100132.06;5055580;28;20052;-69
2023/03/25 07:07:25;;;;;;;21.85;3.35;;;;;;;8.37;90.87;100135.47;5058823;28;20040;-70
2023/03/25 07:09:54;;;;;;;19.42;3.17;;;;;;;8.38;91.23;100130.16;5055828;28;20260;-70
2023/03/25 07:12:21;;;;;;;30.48;3.47;;;;;;;8.40;91.24;100132.72;5053963;28;20065;-70
2023/03/25 07:14:52;;;;;;;23.33;3.97;;;;;;;8.40;90.67;100130.09;5057063;28;20044;-70
2023/03/25 07:17:18;;;;;;;21.48;3.30;;;;;;;8.41;90.11;100130.06;5059977;28;20093;-70
2023/03/25 07:19:43;;;;;;;23.17;3.33;;;;;;;8.41;90.07;100132.66;5059538;28;20072;-70
2023/03/25 07:22:09;;;;;;;18.92;3.58;;;;;;;8.43;90.20;100136.09;5060023;28;20343;-70
2023/03/25 07:24:34;;;;;;;25.20;3.30;;;;;;;8.44;89.90;100132.56;5059736;28;20093;-70
2023/03/25 07:27:00;;;;;;;23.60;3.88;;;;;;;8.46;90.35;100148.16;5060203;28;20055;-70
2023/03/25 07:29:25;;;;;;;28.67;3.72;;;;;;;8.47;89.95;100134.19;5060058;28;20059;-70
2023/03/25 07:31:51;;;;;;;25.25;3.58;;;;;;;8.48;89.88;100133.28;5059634;28;20332;-70
2023/03/25 07:34:16;;;;;;;21.55;2.95;;;;;;;8.49;89.64;100142.78;5059308;28;20056;-70
2023/03/25 07:36:41;;;;;;;23.35;3.38;;;;;;;8.50;89.82;100144.50;5059652;28;20089;-70
2023/03/25 07:39:07;;;;;;;28.70;4.75;;;;;;;8.50;90.30;100139.28;5059626;28;20044;-70
2023/03/25 07:41:32;;;;;;;25.38;3.05;;;;;;;8.52;89.40;100174.00;5058780;28;20041;-70
2023/03/25 07:43:58;;;;;;;29.55;3.58;;;;;;;8.53;89.98;100156.56;5060056;28;20033;-70
2023/03/25 07:46:23;;;;;;;29.23;4.07;;;;;;;8.54;90.01;100151.28;5059380;28;20045;-70
2023/03/25 07:48:49;;;;;;;21.83;4.43;;;;;;;8.55;89.93;100139.06;5059376;28;20108;-70
2023/03/25 07:51:14;;;;;;;19.35;3.17;;;;;;;8.55;90.20;100157.34;5059335;28;20037;-70
2023/03/25 07:53:43;;;;;;;33.50;4.03;;;;;;;8.54;89.95;100138.22;5059414;28;20116;-70
2023/03/25 07:56:09;;;;;;;24.65;3.38;;;;;;;8.56;89.94;100151.22;5055198;28;20924;-70
2023/03/25 07:58:35;;;;;;;25.25;3.55;;;;;;;8.57;89.99;100142.50;5052257;28;20033;-70
2023/03/25 08:01:00;;;;;;;30.75;4.60;;;;;;;8.57;90.54;100153.75;5051805;28;20206;-70
2023/03/25 08:03:26;;;;;;;32.42;3.53;;;;;;;8.59;90.12;100169.38;5059358;28;20112;-70
2023/03/25 08:05:52;;;;;;;27.88;3.58;;;;;;;8.59;90.46;100170.19;5058099;28;20341;-70
2023/03/25 08:08:17;;;;;;;22.20;4.10;;;;;;;8.60;89.34;100169.31;5057723;28;20033;-70
2023/03/25 08:10:43;;;;;;;36.63;4.57;;;;;;;8.60;89.94;100184.97;5058288;28;20037;-70
2023/03/25 08:13:10;;;;;;;25.80;3.88;;;;;;;8.61;90.13;100172.75;5058168;28;20267;-70
2023/03/25 08:15:35;;;;;;;27.35;3.67;;;;;;;8.64;90.41;100181.28;5057764;28;20045;-70
2023/03/25 08:18:02;;;;;;;30.95;4.22;;;;;;;8.67;90.37;100171.63;5058195;28;20045;-70
2023/03/25 08:20:27;;;;;;;30.80;3.90;;;;;;;8.70;90.40;100174.97;5053126;28;20256;-70
2023/03/25 08:22:52;;;;;;;31.60;3.97;;;;;;;8.74;90.05;100178.28;5046919;28;20067;-70
2023/03/25 08:25:18;;;;;;;24.52;3.88;;;;;;;8.76;89.64;100200.78;5048929;28;20363;-70
2023/03/25 08:27:44;;;;;;;18.67;3.05;;;;;;;8.78;89.85;100195.50;5046364;28;20098;-70
2023/03/25 08:30:10;;;;;;;35.15;4.85;;;;;;;8.77;89.65;100183.38;5046825;28;20400;-70
2023/03/25 08:32:37;;;;;;;28.02;4.30;;;;;;;8.81;89.83;100195.38;5048777;28;20352;-70
2023/03/25 08:35:04;;;;;;;28.40;4.20;;;;;;;8.82;89.88;100179.66;5045035;28;20348;-70
2023/03/25 08:37:33;;;;;;;19.55;4.13;;;;;;;8.84;89.75;100188.25;5033591;28;20112;-70
2023/03/25 08:40:00;;;;;;;25.92;3.03;;;;;;;8.86;90.46;100190.81;5035680;28;20032;-70
2023/03/25 08:42:25;;;;;;;27.90;3.95;;;;;;;8.88;89.90;100182.88;5038395;28;20061;-70
2023/03/25 08:44:50;;;;;;;31.60;5.03;;;;;;;8.91;89.81;100187.97;5035311;28;20045;-70
2023/03/25 08:47:16;;;;;;;18.48;2.95;;;;;;;8.92;90.31;100180.09;5029348;28;20041;-70
2023/03/25 08:49:41;;;;;;;28.67;4.40;;;;;;;8.91;89.92;100188.81;5038534;28;20037;-70
2023/03/25 08:52:07;;;;;;;31.52;4.00;;;;;;;8.92;89.02;100203.59;5038261;28;20045;-70
2023/03/25 08:54:33;;;;;;;26.55;3.65;;;;;;;8.94;89.27;100193.06;5038602;28;20052;-70
2023/03/25 08:56:58;;;;;;;31.15;4.15;;;;;;;8.95;88.70;100192.16;5035997;28;20064;-70
2023/03/25 08:59:23;;;;;;;26.00;4.00;;;;;;;8.98;87.94;100195.47;5037519;28;20083;-70
2023/03/25 09:01:49;;;;;;;29.95;4.78;;;;;;;9.00;88.20;100213.69;5033023;28;20049;-70
2023/03/25 09:04:15;;;;;;;24.63;3.58;;;;;;;9.00;87.43;100206.72;5035726;28;20041;-70
2023/03/25 09:06:40;;;;;;;33.03;4.38;;;;;;;9.03;87.82;100192.66;5031559;28;20045;-70
2023/03/25 09:09:06;;;;;;;27.15;4.10;;;;;;;9.05;87.10;100221.34;5031968;28;20394;-70
2023/03/25 09:11:33;;;;;;;26.92;3.83;;;;;;;9.08;87.45;100226.41;5038216;28;20037;-70
2023/03/25 09:14:01;;;;;;;34.90;4.80;;;;;;;9.08;88.14;100248.16;5038093;28;20040;-70
2023/03/25 09:16:27;;;;;;;23.48;4.53;;;;;;;9.10;87.31;100233.28;5037516;28;20039;-70
2023/03/25 09:18:52;;;;;;;28.38;4.20;;;;;;;9.12;87.04;100210.53;5037617;28;20021;-70
2023/03/25 09:21:17;;;;;;;26.95;4.43;;;;;;;9.14;86.95;100241.81;5045547;28;20348;-70
2023/03/25 09:23:43;;;;;;;31.27;3.90;;;;;;;9.14;86.38;100203.47;5048346;28;20214;-70
2023/03/25 09:26:08;;;;;;;25.70;4.35;;;;;;;9.15;86.03;100225.22;5045980;28;20071;-70
2023/03/25 09:28:34;;;;;;;31.10;3.67;;;;;;;9.19;86.39;100216.34;5040977;28;20093;-70
2023/03/25 09:30:59;;;;;;;31.27;3.90;;;;;;;9.23;85.27;100242.25;5031068;28;20029;-70
2023/03/25 09:33:26;;;;;;;15.40;3.28;;;;;;;9.27;85.73;100227.28;5025320;28;20071;-70
2023/03/25 09:35:52;;;;;;;35.10;4.72;;;;;;;9.29;85.31;100222.84;5034805;28;20052;-70
2023/03/25 09:38:17;;;;;;;29.15;3.75;;;;;;;9.31;85.06;100209.72;5035740;28;20280;-70
2023/03/25 09:40:43;;;;;;;26.77;3.72;;;;;;;9.32;84.89;100209.66;5038391;28;20042;-70
2023/03/25 09:43:21;;;;;;;29.98;3.28;;;;;;;9.34;85.03;100220.88;5030501;28;20234;-70
2023/03/25 09:45:47;;;;;;;21.73;3.15;;;;;;;9.36;84.65;100219.03;5031021;28;20041;-70
2023/03/25 09:48:31;;;;;;;22.27;3.88;;;;;;;9.36;84.73;100226.03;5029584;28;20124;-70
2023/03/25 09:51:02;;;;;;;26.90;3.40;;;;;;;9.38;84.71;100240.72;5028634;28;20043;-70
2023/03/25 09:53:30;;;;;;;32.60;3.80;;;;;;;9.40;84.47;100243.25;5035937;28;20035;-70
2023/03/25 09:55:56;;;;;;;29.33;3.47;;;;;;;9.41;83.78;100237.13;5039413;28;20380;-70
2023/03/25 09:58:39;;;;;;;20.00;3.22;;;;;;;9.43;83.72;100237.91;5036995;28;20041;-70
2023/03/25 10:01:24;;;;;;;25.38;2.97;;;;;;;9.47;84.29;100238.63;5035090;28;20037;-70
2023/03/25 10:04:07;;;;;;;26.15;3.50;;;;;;;9.51;83.85;100229.72;5032519;28;20037;-70
2023/03/25 10:06:43;;;;;;;33.55;4.35;;;;;;;9.51;83.35;100254.06;5029210;28;20045;-70
2023/03/25 10:09:27;;;;;;;28.42;3.85;;;;;;;9.51;83.56;100253.22;5029045;28;20391;-70
2023/03/25 10:12:07;;;;;;;21.95;3.22;;;;;;;9.49;82.57;100245.47;5030691;28;20100;-70
2023/03/25 10:14:46;;;;;;;32.05;4.18;;;;;;;9.53;83.54;100282.75;5033993;28;20033;-70
2023/03/25 10:17:29;;;;;;;23.77;2.72;;;;;;;9.56;83.31;100275.63;5031928;28;20356;-70
2023/03/25 10:20:26;;;;;;;41.90;4.18;;;;;;;9.59;82.42;100279.88;5032293;28;20072;-70
2023/03/25 10:23:13;;;;;;;35.97;3.80;;;;;;;9.63;81.88;100285.81;4991368;28;20105;-70
2023/03/25 10:25:41;;;;;;;26.65;3.35;;;;;;;9.67;81.63;100261.22;5055887;28;20036;-70
2023/03/25 10:28:17;;;;;;;23.10;2.80;;;;;;;9.67;82.14;100264.69;5057356;28;20036;-70
2023/03/25 10:30:47;;;;;;;19.52;3.10;;;;;;;9.68;81.19;100284.69;5056726;28;20055;-70
2023/03/25 10:33:28;;;;;;;22.10;3.33;;;;;;;9.67;81.31;100264.69;5054537;28;20390;-70
2023/03/25 10:35:57;;;;;;;25.77;3.92;;;;;;;9.66;81.23;100273.47;5052440;28;20070;-70
2023/03/25 10:38:23;;;;;;;24.08;3.55;;;;;;;9.67;81.46;100292.59;5055026;28;20128;-70
2023/03/25 10:40:55;;;;;;;26.40;4.00;;;;;;;9.68;81.53;100273.38;5045533;28;20064;-70
2023/03/25 10:43:40;;;;;;;26.42;4.22;;;;;;;9.71;81.58;100302.00;5054888;28;20040;-70
2023/03/25 10:46:20;;;;;;;27.40;3.53;;;;;;;9.70;82.02;100298.53;5052802;28;20340;-70
2023/03/25 10:48:45;;;;;;;26.35;4.28;;;;;;;9.71;82.95;100265.38;5053565;28;20044;-70
2023/03/25 10:51:25;;;;;;;36.70;3.67;;;;;;;9.79;83.26;100268.50;5054595;28;20236;-70
2023/03/25 10:53:51;;;;;;;30.35;3.83;;;;;;;9.83;83.40;100290.13;5059353;28;20048;-70
2023/03/25 10:56:26;;;;;;;27.58;3.88;;;;;;;9.81;83.01;100292.81;5060792;28;20398;-70
2023/03/25 10:58:56;;;;;;;31.65;4.65;;;;;;;9.82;83.75;100286.66;5057443;28;20048;-70
2023/03/25 11:01:41;;;;;;;36.00;4.10;;;;;;;9.84;82.66;100292.69;5059636;28;20328;-70
2023/03/25 11:04:12;;;;;;;38.92;4.15;;;;;;;9.89;82.29;100327.31;5059982;28;20048;-70
2023/03/25 11:06:40;;;;;;;25.42;3.20;;;;;;;9.92;82.18;100318.47;5057761;28;20209;-70
2023/03/25 11:09:15;;;;;;;24.27;3.77;;;;;;;9.97;82.03;100285.97;5060670;28;20352;-70
2023/03/25 11:11:42;;;;;;;30.40;3.80;;;;;;;10.02;81.72;100296.19;5058129;28;20056;-70
2023/03/25 11:14:09;;;;;;;23.58;3.00;;;;;;;10.04;81.93;100304.84;5060151;28;20328;-70
2023/03/25 11:16:47;;;;;;;43.88;5.78;;;;;;;10.06;81.55;100302.13;5059521;28;20408;-70
2023/03/25 11:19:24;;;;;;;36.55;3.55;;;;;;;10.06;80.91;100315.22;5060593;28;20041;-70
2023/03/25 11:21:54;;;;;;;27.13;3.90;;;;;;;10.03;80.67;100324.06;5062287;28;20048;-70
2023/03/25 11:24:21;;;;;;;34.28;3.92;;;;;;;9.98;81.06;100318.19;5056846;28;20032;-70
2023/03/25 11:26:50;;;;;;;35.65;3.45;;;;;;;9.93;80.31;100315.81;5060450;28;20233;-70
2023/03/25 11:29:19;;;;;;;19.23;3.10;;;;;;;9.91;80.11;100340.31;5059837;28;20025;-70
2023/03/25 11:32:04;;;;;;;33.22;4.25;;;;;;;9.84;81.00;100331.06;5059207;28;20064;-70
2023/03/25 11:34:30;;;;;;;28.60;3.35;;;;;;;9.80;81.23;100304.19;5060353;28;20028;-70
2023/03/25 11:37:13;;;;;;;23.75;3.20;;;;;;;9.83;81.89;100303.22;5060117;28;20228;-70
2023/03/25 11:39:41;;;;;;;22.67;2.95;;;;;;;9.95;82.75;100323.56;5058588;28;20252;-70